Time;durP1;ratioP1;P1;durP2;ratioP2;P2;SDS_P1;SDS_P2;PMS_P1;PMS_P2;Temp;Humidity;BMP_temperature;BMP_pressure;BME280_temperature;BME280_humidity;BME280_pressure;Samples;Min_cycle;Max_cycle;Signal;HPM_P1;HPM_P2
2022/06/20 00:01:43;;;;;;;8.32;2.28;;;;;;;22.09;100.00;98083.59;4410170;32;20087;-74
2022/06/20 00:04:18;;;;;;;11.85;2.83;;;;;;;21.81;100.00;98049.91;4416511;32;20480;-73
2022/06/20 00:06:44;;;;;;;2.33;2.15;;;;;;;22.00;100.00;98080.22;4415487;32;20045;-72
2022/06/20 00:09:16;;;;;;;5.53;2.15;;;;;;;21.74;100.00;98034.09;4415949;32;20139;-73
2022/06/20 00:11:46;;;;;;;13.07;2.60;;;;;;;21.92;100.00;98067.47;4416012;32;20382;-73
2022/06/20 00:14:18;;;;;;;8.77;3.37;;;;;;;21.84;100.00;98060.19;4414992;32;20042;-73
2022/06/20 00:16:44;;;;;;;5.78;2.10;;;;;;;21.88;100.00;98083.03;4414909;32;20042;-73
2022/06/20 00:19:11;;;;;;;14.57;2.55;;;;;;;21.85;100.00;98072.75;4389049;32;20149;-73
2022/06/20 00:21:38;;;;;;;6.03;2.75;;;;;;;21.87;100.00;98078.66;4428203;32;20050;-73
2022/06/20 00:24:05;;;;;;;7.97;2.65;;;;;;;21.88;100.00;98097.50;4420762;32;20064;-73
2022/06/20 00:26:30;;;;;;;10.45;2.60;;;;;;;21.70;100.00;98077.81;4414830;32;20076;-73
2022/06/20 00:28:57;;;;;;;4.35;2.45;;;;;;;21.94;100.00;98103.56;4414088;32;20099;-73
2022/06/20 00:31:23;;;;;;;4.53;2.35;;;;;;;21.94;100.00;98111.78;4416122;32;20042;-74
2022/06/20 00:33:49;;;;;;;5.00;2.90;;;;;;;21.74;100.00;98089.66;4416599;32;20061;-73
2022/06/20 00:36:15;;;;;;;8.15;2.22;;;;;;;21.96;100.00;98114.97;4414148;32;20321;-73
2022/06/20 00:38:43;;;;;;;7.40;2.10;;;;;;;21.84;100.00;98114.97;4413167;32;20095;-73
2022/06/20 00:41:16;;;;;;;6.05;2.72;;;;;;;21.76;100.00;98117.53;4415898;32;20050;-74
2022/06/20 00:43:45;;;;;;;4.85;2.60;;;;;;;21.67;100.00;98116.06;4415858;32;20056;-74
2022/06/20 00:46:22;;;;;;;11.40;3.75;;;;;;;21.55;100.00;98119.63;4415036;32;20057;-74
2022/06/20 00:48:55;;;;;;;9.88;3.10;;;;;;;21.21;100.00;98086.88;4415032;32;20042;-74
2022/06/20 00:51:31;;;;;;;9.20;2.55;;;;;;;21.18;100.00;98094.97;4415144;32;20035;-73
2022/06/20 00:54:08;;;;;;;3.53;2.40;;;;;;;21.18;100.00;98103.19;4416160;32;20062;-73
2022/06/20 00:56:40;;;;;;;4.93;2.75;;;;;;;21.38;100.00;98132.38;4411700;32;20078;-73
2022/06/20 00:59:12;;;;;;;14.38;2.75;;;;;;;21.28;100.00;98127.34;4399241;32;20369;-74
2022/06/20 01:01:40;;;;;;;10.20;2.45;;;;;;;21.23;100.00;98124.84;4401145;32;20337;-73
2022/06/20 01:04:15;;;;;;;3.65;2.83;;;;;;;21.04;100.00;98095.31;4416530;32;20124;-73
2022/06/20 01:06:49;;;;;;;13.23;2.85;;;;;;;21.22;100.00;98128.72;4418972;32;20037;-72
2022/06/20 01:09:18;;;;;;;6.07;2.45;;;;;;;21.25;100.00;98132.72;4418562;32;20364;-73
2022/06/20 01:11:47;;;;;;;4.50;2.60;;;;;;;21.20;100.00;98133.75;4419225;32;20038;-72
2022/06/20 01:14:42;;;;;;;9.90;3.72;;;;;;;21.20;100.00;98136.47;4415673;32;20462;-73
2022/06/20 01:17:20;;;;;;;17.40;2.97;;;;;;;20.86;100.00;98101.00;4401134;32;20050;-73
2022/06/20 01:19:48;;;;;;;9.88;2.80;;;;;;;20.79;100.00;98105.44;4416914;32;20145;-74
2022/06/20 01:22:56;;;;;;;6.93;2.83;;;;;;;20.94;100.00;98129.41;4414394;32;20089;-72
2022/06/20 01:25:27;;;;;;;4.53;3.08;;;;;;;21.02;100.00;98130.44;4400661;32;20317;-72
2022/06/20 01:27:55;;;;;;;5.85;3.15;;;;;;;20.70;100.00;98096.56;4418165;32;20057;-72
2022/06/20 01:30:24;;;;;;;10.35;2.65;;;;;;;20.95;100.00;98125.53;4419041;32;20038;-74
2022/06/20 01:32:50;;;;;;;5.47;2.97;;;;;;;20.93;100.00;98127.78;4418737;32;20081;-73
2022/06/20 01:38:04;;;;;;;7.35;3.03;;;;;;;20.93;100.00;98133.25;4418143;32;20383;-73
2022/06/20 01:40:31;;;;;;;13.38;3.83;;;;;;;20.86;100.00;98128.34;4418890;32;20478;-73
2022/06/20 01:42:58;;;;;;;4.65;3.15;;;;;;;20.57;100.00;98077.34;4403109;32;20042;-73
2022/06/20 01:48:17;;;;;;;2.67;2.50;;;;;;;20.84;100.00;98129.84;4418055;32;20372;-73
2022/06/20 01:50:45;;;;;;;7.87;3.08;;;;;;;20.81;100.00;98119.59;4415688;32;20035;-73
2022/06/20 01:53:15;;;;;;;5.57;3.95;;;;;;;20.76;100.00;98119.78;4418694;32;20090;-73
2022/06/20 01:55:43;;;;;;;8.35;3.20;;;;;;;20.80;100.00;98126.19;4417110;32;20046;-73
2022/06/20 01:58:16;;;;;;;4.28;3.12;;;;;;;20.53;100.00;98092.03;4401835;32;20409;-73
2022/06/20 02:00:42;;;;;;;4.75;3.20;;;;;;;20.68;100.00;98122.28;4413426;32;20061;-73
2022/06/20 02:03:14;;;;;;;4.78;3.10;;;;;;;20.61;100.00;98121.22;4417686;32;20050;-73
2022/06/20 02:05:44;;;;;;;7.47;3.35;;;;;;;20.60;100.00;98125.91;4418288;32;20076;-73
2022/06/20 02:08:16;;;;;;;5.68;3.20;;;;;;;20.59;100.00;98129.75;4415542;32;20053;-73
2022/06/20 02:10:51;;;;;;;4.53;3.03;;;;;;;20.30;100.00;98101.44;4417850;32;20072;-73
2022/06/20 02:13:19;;;;;;;10.43;3.22;;;;;;;20.45;100.00;98129.25;4403804;32;20551;-72
2022/06/20 02:15:48;;;;;;;13.27;2.92;;;;;;;20.40;100.00;98132.22;4416611;32;20087;-73
2022/06/20 02:18:17;;;;;;;6.97;3.40;;;;;;;20.19;100.00;98100.25;4416156;32;20050;-73
2022/06/20 02:20:46;;;;;;;5.03;2.92;;;;;;;20.40;100.00;98156.81;4417903;32;20091;-72
2022/06/20 02:23:22;;;;;;;9.38;4.00;;;;;;;20.29;100.00;98154.47;4417754;32;20105;-73
2022/06/20 02:25:52;;;;;;;7.93;4.40;;;;;;;20.13;100.00;98154.28;4416592;32;20443;-73
2022/06/20 02:28:50;;;;;;;6.75;3.60;;;;;;;20.14;100.00;98168.78;4416372;32;20408;-72
2022/06/20 02:31:17;;;;;;;7.60;3.70;;;;;;;20.11;100.00;98174.91;4385333;32;20060;-73
2022/06/20 02:33:46;;;;;;;7.85;2.72;;;;;;;19.64;100.00;98126.69;4415693;32;20038;-72
2022/06/20 02:36:12;;;;;;;11.55;3.08;;;;;;;19.60;100.00;98162.03;4401136;32;20963;-72
2022/06/20 02:38:39;;;;;;;12.32;3.28;;;;;;;19.69;100.00;98202.97;4402532;32;20466;-73
2022/06/20 02:41:05;;;;;;;9.23;3.33;;;;;;;19.53;100.00;98200.00;4402444;32;20038;-73
2022/06/20 02:43:39;;;;;;;8.15;3.67;;;;;;;19.22;100.00;98173.78;4402075;32;20061;-73
2022/06/20 02:46:11;;;;;;;7.20;3.03;;;;;;;19.00;100.00;98161.22;4406514;32;20054;-73
2022/06/20 02:48:39;;;;;;;4.15;3.12;;;;;;;19.16;100.00;98196.97;4417282;32;20096;-73
2022/06/20 02:51:10;;;;;;;8.77;3.50;;;;;;;19.11;100.00;98201.78;4417026;32;20094;-74
2022/06/20 02:53:47;;;;;;;15.20;3.40;;;;;;;18.69;100.00;98166.88;4416295;32;20096;-74
2022/06/20 02:56:17;;;;;;;7.20;3.80;;;;;;;18.85;100.00;98213.56;4416896;32;20375;-75
2022/06/20 02:58:50;;;;;;;6.53;3.33;;;;;;;18.81;100.00;98213.38;4417257;32;20411;-73
2022/06/20 03:01:32;;;;;;;13.27;3.08;;;;;;;18.88;100.00;98223.81;4416360;32;20086;-73
2022/06/20 03:03:58;;;;;;;14.02;3.17;;;;;;;18.75;100.00;98200.22;4417708;32;20042;-75
2022/06/20 03:06:31;;;;;;;14.73;3.10;;;;;;;18.69;100.00;98216.75;4417364;32;20177;-74
2022/06/20 03:08:57;;;;;;;;;;;;;;;18.69;100.00;98226.88;4415966;32;20048;-74
2022/06/20 03:11:27;;;;;;;10.57;2.97;;;;;;;18.66;100.00;98227.53;4417004;32;19961;-73
2022/06/20 03:13:55;;;;;;;10.35;3.12;;;;;;;18.56;100.00;98222.41;4416481;32;20055;-74
2022/06/20 03:16:21;;;;;;;7.18;3.45;;;;;;;18.15;100.00;98192.56;4416959;32;20058;-73
2022/06/20 03:18:49;;;;;;;10.13;3.03;;;;;;;18.31;100.00;98231.03;4413848;32;20056;-72
2022/06/20 03:21:23;;;;;;;7.60;2.92;;;;;;;18.45;100.00;98236.34;4416649;32;20389;-71
2022/06/20 03:23:49;;;;;;;12.77;3.35;;;;;;;18.22;100.00;98196.75;4417444;32;20088;-73
2022/06/20 03:26:20;;;;;;;10.65;3.50;;;;;;;18.42;100.00;98228.03;4416485;32;20114;-73
2022/06/20 03:28:46;;;;;;;13.50;3.03;;;;;;;18.38;100.00;98229.78;4414736;32;20141;-72
2022/06/20 03:31:14;;;;;;;9.07;3.22;;;;;;;18.43;100.00;98235.88;4417124;32;20050;-73
2022/06/20 03:33:41;;;;;;;12.27;3.17;;;;;;;18.36;100.00;98205.56;4417033;32;20110;-72
2022/06/20 03:36:14;;;;;;;12.95;3.70;;;;;;;18.48;100.00;98238.44;4414394;32;20046;-72
2022/06/20 03:38:43;;;;;;;18.62;4.15;;;;;;;18.39;100.00;98240.34;4427395;32;20101;-72
2022/06/20 03:41:11;;;;;;;9.77;4.15;;;;;;;18.35;100.00;98236.69;4415323;32;20065;-73
2022/06/20 03:43:40;;;;;;;11.65;3.30;;;;;;;18.47;100.00;98250.44;4416269;32;20073;-73
2022/06/20 03:46:23;;;;;;;12.50;3.45;;;;;;;18.22;100.00;98216.66;4416586;32;20098;-72
2022/06/20 03:48:59;;;;;;;21.83;3.05;;;;;;;18.47;100.00;98242.28;4415159;32;20046;-72
2022/06/20 03:51:31;;;;;;;6.10;3.30;;;;;;;18.51;100.00;98248.69;4416694;32;20038;-72
2022/06/20 03:54:09;;;;;;;3.53;2.58;;;;;;;18.42;100.00;98260.72;4416194;32;20121;-74
2022/06/20 03:56:48;;;;;;;11.95;4.35;;;;;;;18.29;100.00;98262.47;4415981;32;20097;-73
2022/06/20 03:59:23;;;;;;;10.05;3.05;;;;;;;18.26;100.00;98279.47;4416445;32;20042;-73
2022/06/20 04:02:06;;;;;;;7.50;3.03;;;;;;;18.28;100.00;98285.37;4413942;32;20101;-73
2022/06/20 04:04:47;;;;;;;14.98;2.85;;;;;;;18.43;100.00;98306.75;4415961;32;20038;-72
2022/06/20 04:07:40;;;;;;;12.05;2.50;;;;;;;18.44;100.00;98302.88;4414198;32;20038;-73
2022/06/20 04:13:05;;;;;;;6.72;2.55;;;;;;;18.47;100.00;98302.22;4415024;32;20046;-73
2022/06/20 04:15:52;;;;;;;5.87;2.85;;;;;;;18.40;100.00;98299.19;4416627;32;20080;-72
2022/06/20 04:18:29;;;;;;;16.33;3.20;;;;;;;18.24;100.00;98308.97;4416367;32;20046;-73
2022/06/20 04:21:03;;;;;;;13.15;3.60;;;;;;;18.24;100.00;98306.22;4416648;32;20059;-72
2022/06/20 04:23:38;;;;;;;7.62;2.30;;;;;;;17.84;100.00;98254.50;4415317;32;20046;-71
2022/06/20 04:26:13;;;;;;;12.18;2.95;;;;;;;17.71;100.00;98254.31;4412643;32;20353;-71
2022/06/20 04:28:49;;;;;;;2.97;2.30;;;;;;;17.79;100.00;98245.38;4416162;32;20061;-72
2022/06/20 04:31:26;;;;;;;11.38;3.70;;;;;;;17.70;100.00;98241.81;4408255;32;20054;-72
2022/06/20 04:33:59;;;;;;;5.18;2.53;;;;;;;17.81;100.00;98301.44;4414603;32;20072;-73
2022/06/20 04:36:38;;;;;;;15.80;2.97;;;;;;;17.85;100.00;98318.75;4414632;32;20097;-73
2022/06/20 04:39:16;;;;;;;12.20;2.78;;;;;;;17.89;100.00;98331.44;4401599;32;20073;-73
2022/06/20 04:41:52;;;;;;;8.60;2.40;;;;;;;17.54;100.00;98281.47;4411971;32;20458;-73
2022/06/20 04:44:24;;;;;;;10.55;2.92;;;;;;;17.83;100.00;98323.72;4415428;32;20056;-74
2022/06/20 04:47:14;;;;;;;8.70;2.62;;;;;;;17.66;100.00;98314.34;4415333;32;20046;-73
2022/06/20 04:49:40;;;;;;;10.85;3.22;;;;;;;17.45;100.00;98314.09;4415958;32;20050;-73
2022/06/20 04:52:12;;;;;;;12.55;3.20;;;;;;;17.31;100.00;98273.38;4416097;32;20163;-73
2022/06/20 04:54:38;;;;;;;17.70;2.80;;;;;;;17.55;100.00;98299.41;4414612;32;21929;-75
2022/06/20 04:57:04;;;;;;;7.55;2.97;;;;;;;17.57;100.00;98297.19;4412732;32;20068;-74
2022/06/20 04:59:32;;;;;;;11.32;3.90;;;;;;;17.50;100.00;98297.62;4414527;32;20124;-74
2022/06/20 05:02:04;;;;;;;12.20;2.95;;;;;;;17.51;100.00;98277.47;4413702;32;20058;-70
2022/06/20 05:04:34;;;;;;;6.75;2.65;;;;;;;17.67;100.00;98275.12;4414398;32;20425;-70
2022/06/20 05:07:06;;;;;;;6.68;2.92;;;;;;;17.62;100.00;98261.66;4412706;32;20055;-70
2022/06/20 05:09:49;;;;;;;15.65;3.05;;;;;;;17.59;100.00;98262.28;4414720;32;20054;-69
2022/06/20 05:12:34;;;;;;;5.32;3.35;;;;;;;17.72;100.00;98263.28;4410089;32;20103;-69
2022/06/20 05:15:13;;;;;;;9.02;2.87;;;;;;;17.63;100.00;98263.28;4415083;32;20096;-68
2022/06/20 05:17:41;;;;;;;4.50;2.65;;;;;;;17.51;100.00;98260.34;4415133;32;20034;-68
2022/06/20 05:20:18;;;;;;;11.02;3.30;;;;;;;17.57;100.00;98259.88;4414245;32;20114;-71
2022/06/20 05:22:51;;;;;;;11.60;2.85;;;;;;;17.42;100.00;98216.75;4413251;32;20050;-70
2022/06/20 05:25:21;;;;;;;9.77;3.17;;;;;;;17.73;100.00;98245.84;4414830;32;20082;-69
2022/06/20 05:28:04;;;;;;;10.18;3.12;;;;;;;17.70;100.00;98225.50;4412521;32;20069;-68
2022/06/20 05:30:34;;;;;;;11.00;3.15;;;;;;;17.55;100.00;98176.94;4413757;32;20128;-70
2022/06/20 05:33:06;;;;;;;10.70;2.95;;;;;;;17.97;100.00;98223.66;4414710;32;20042;-69
2022/06/20 05:36:01;;;;;;;13.62;3.35;;;;;;;18.20;100.00;98220.78;4414427;32;20397;-68
2022/06/20 05:38:30;;;;;;;9.85;3.42;;;;;;;18.30;100.00;98199.50;4380813;32;20060;-69
2022/06/20 05:40:58;;;;;;;9.30;2.78;;;;;;;18.31;100.00;98167.59;4413031;32;20097;-68
2022/06/20 05:43:26;;;;;;;11.20;3.17;;;;;;;18.74;100.00;98196.72;4413154;32;20042;-67
2022/06/20 05:45:58;;;;;;;5.62;2.47;;;;;;;18.62;100.00;98155.66;4413053;32;20058;-68
2022/06/20 05:48:30;;;;;;;11.50;2.47;;;;;;;19.01;100.00;98206.44;4415664;32;20049;-69
2022/06/20 05:50:57;;;;;;;;;;;;;;;18.98;100.00;98182.56;4409154;32;20431;-68
2022/06/20 05:53:32;;;;;;;11.23;3.42;;;;;;;19.42;100.00;98215.16;4402770;32;19954;-70
2022/06/20 05:56:03;;;;;;;9.80;2.90;;;;;;;19.63;100.00;98222.59;4401574;32;20067;-69
2022/06/20 05:58:34;;;;;;;11.52;3.03;;;;;;;19.69;100.00;98213.06;4402694;32;20046;-68
2022/06/20 06:01:07;;;;;;;9.68;2.60;;;;;;;19.99;100.00;98221.28;4402638;32;20089;-69
2022/06/20 06:03:40;;;;;;;9.00;3.83;;;;;;;19.83;100.00;98180.88;4410782;32;20052;-69
2022/06/20 06:06:16;;;;;;;10.25;3.42;;;;;;;20.28;100.00;98213.03;4417534;32;20046;-69
2022/06/20 06:08:48;;;;;;;13.62;4.65;;;;;;;20.44;100.00;98205.03;4417671;32;20344;-69
2022/06/20 06:11:22;;;;;;;23.30;3.58;;;;;;;20.54;100.00;98198.34;4412151;32;20054;-70
2022/06/20 06:14:12;;;;;;;10.68;2.72;;;;;;;20.64;100.00;98219.81;4414766;32;20435;-69
2022/06/20 06:16:46;;;;;;;12.48;3.10;;;;;;;20.86;100.00;98215.13;4416806;32;20415;-71
2022/06/20 06:19:45;;;;;;;13.32;3.20;;;;;;;20.71;100.00;98223.94;4416304;32;20099;-68
2022/06/20 06:22:20;;;;;;;14.50;3.95;;;;;;;20.69;100.00;98235.22;4399777;32;20431;-70
2022/06/20 06:24:48;;;;;;;13.13;3.12;;;;;;;20.87;100.00;98233.13;4402087;32;20108;-70
2022/06/20 06:27:28;;;;;;;18.40;3.33;;;;;;;20.96;100.00;98236.56;4414549;32;20438;-69
2022/06/20 06:30:05;;;;;;;24.12;3.58;;;;;;;20.82;100.00;98233.31;4413524;32;20057;-70
2022/06/20 06:32:38;;;;;;;12.30;3.62;;;;;;;21.09;100.00;98266.72;4417513;32;20069;-69
2022/06/20 06:35:34;;;;;;;12.25;3.33;;;;;;;20.83;100.00;98292.38;4415318;32;20063;-69
2022/06/20 06:38:22;;;;;;;11.95;3.87;;;;;;;19.69;100.00;98229.44;4417464;32;20091;-68
2022/06/20 06:40:51;;;;;;;16.08;4.43;;;;;;;20.09;100.00;98242.75;4421497;32;20066;-68
2022/06/20 06:43:25;;;;;;;8.50;3.20;;;;;;;20.12;100.00;98272.16;4413124;32;20443;-71
2022/06/20 06:45:59;;;;;;;14.48;3.12;;;;;;;20.17;100.00;98271.97;4417987;32;20129;-69
2022/06/20 06:48:25;;;;;;;7.40;3.70;;;;;;;19.85;100.00;98252.38;4416237;32;20058;-69
2022/06/20 06:50:59;;;;;;;10.88;3.50;;;;;;;19.79;100.00;98278.28;4417244;32;20061;-69
2022/06/20 06:53:43;;;;;;;16.67;3.72;;;;;;;19.75;100.00;98234.41;4416300;32;20053;-67
2022/06/20 06:56:22;;;;;;;23.45;4.10;;;;;;;19.54;100.00;98201.56;4416628;32;20035;-68
2022/06/20 06:59:16;;;;;;;9.15;3.28;;;;;;;19.72;100.00;98237.81;4417051;32;20046;-70
2022/06/20 07:01:51;;;;;;;5.70;3.50;;;;;;;19.67;100.00;98256.28;4414309;32;20050;-68
2022/06/20 07:04:36;;;;;;;9.40;3.58;;;;;;;19.20;100.00;98236.09;4408292;32;20049;-72
2022/06/20 07:07:15;;;;;;;9.60;3.28;;;;;;;19.38;100.00;98233.28;4416904;32;20182;-69
2022/06/20 07:09:48;;;;;;;8.93;3.87;;;;;;;19.13;100.00;98164.03;4415603;32;20050;-69
2022/06/20 07:12:20;;;;;;;12.23;3.53;;;;;;;19.31;100.00;98159.34;4415596;32;20050;-70
2022/06/20 07:15:02;;;;;;;12.18;3.05;;;;;;;19.73;100.00;98203.09;4416905;32;20090;-69
2022/06/20 07:17:31;;;;;;;5.85;2.90;;;;;;;19.91;100.00;98204.63;4416598;32;20042;-69
2022/06/20 07:20:00;;;;;;;4.87;3.00;;;;;;;19.95;100.00;98194.63;4415538;32;20034;-70
2022/06/20 07:22:26;;;;;;;8.32;3.15;;;;;;;19.78;100.00;98123.72;4414924;32;20042;-70
2022/06/20 07:24:54;;;;;;;10.68;3.53;;;;;;;20.14;100.00;98169.56;4405823;32;20172;-70
2022/06/20 07:27:38;;;;;;;15.32;3.42;;;;;;;20.17;100.00;98159.09;4415651;32;20041;-69
2022/06/20 07:30:10;;;;;;;9.75;3.25;;;;;;;20.50;100.00;98153.66;4414048;32;20439;-69
2022/06/20 07:32:46;;;;;;;6.70;4.00;;;;;;;20.64;100.00;98153.38;4415549;32;20042;-70
2022/06/20 07:35:23;;;;;;;10.02;3.35;;;;;;;20.68;100.00;98146.91;4415708;32;20237;-68
2022/06/20 07:37:56;;;;;;;21.35;3.67;;;;;;;20.83;100.00;98139.19;4417010;32;20070;-68
2022/06/20 07:40:33;;;;;;;7.55;3.30;;;;;;;20.72;100.00;98110.69;4416177;32;20244;-67
2022/06/20 07:43:06;;;;;;;10.95;3.22;;;;;;;21.24;100.00;98145.62;4412610;32;20042;-72
2022/06/20 07:45:38;;;;;;;15.35;3.92;;;;;;;21.45;100.00;98133.75;4416457;32;20422;-69
2022/06/20 07:48:11;;;;;;;18.23;4.05;;;;;;;21.56;100.00;98115.75;4416371;32;20083;-69
2022/06/20 07:50:42;;;;;;;15.23;4.30;;;;;;;21.75;100.00;98118.66;4415754;32;20076;-69
2022/06/20 07:53:18;;;;;;;;;;;;;;;21.77;100.00;98108.16;4414463;32;20046;-68
2022/06/20 07:55:51;;;;;;;8.77;3.72;;;;;;;21.84;100.00;98104.03;4412617;32;20102;-68
2022/06/20 07:58:28;;;;;;;22.20;5.03;;;;;;;21.79;100.00;98090.56;4415688;32;20199;-68
2022/06/20 08:00:55;;;;;;;12.18;3.35;;;;;;;21.72;100.00;98091.97;4414573;32;20077;-68
2022/06/20 08:03:32;;;;;;;17.02;3.60;;;;;;;21.75;100.00;98047.44;4415543;32;20061;-69
2022/06/20 08:06:11;;;;;;;9.93;4.47;;;;;;;22.27;100.00;98083.31;4416209;32;20348;-69
2022/06/20 08:08:47;;;;;;;11.18;3.97;;;;;;;22.43;100.00;98081.44;4401247;32;20102;-68
2022/06/20 08:11:42;;;;;;;19.65;3.87;;;;;;;22.68;100.00;98105.97;4415309;32;20070;-70
2022/06/20 08:14:19;;;;;;;14.73;5.70;;;;;;;22.87;100.00;98099.00;4415469;32;20050;-69
2022/06/20 08:16:48;;;;;;;19.65;5.43;;;;;;;23.07;100.00;98097.94;4401280;32;20090;-69
2022/06/20 08:19:14;;;;;;;8.10;4.68;;;;;;;23.10;100.00;98096.44;4404112;32;20108;-68
2022/06/20 08:21:47;;;;;;;16.48;4.28;;;;;;;22.97;100.00;98087.47;4414919;32;20344;-70
2022/06/20 08:24:29;;;;;;;9.40;4.43;;;;;;;22.90;100.00;98081.81;4415308;32;20058;-69
2022/06/20 08:27:09;;;;;;;;;;;;;;;23.16;100.00;98095.78;4416295;32;20498;-68
2022/06/20 08:29:39;;;;;;;8.43;3.47;;;;;;;23.15;100.00;98083.25;4410182;32;19948;-70
2022/06/20 08:32:30;;;;;;;14.13;3.62;;;;;;;23.24;100.00;98079.50;4415283;32;20089;-70
2022/06/20 08:35:01;;;;;;;13.65;4.65;;;;;;;23.42;100.00;98068.91;4416050;32;20089;-68
2022/06/20 08:37:38;;;;;;;10.98;3.80;;;;;;;23.54;100.00;98072.34;4413585;32;20466;-68
2022/06/20 08:40:11;;;;;;;16.92;4.32;;;;;;;23.55;100.00;98068.44;4415578;32;20391;-73
2022/06/20 08:43:04;;;;;;;13.40;4.15;;;;;;;23.70;100.00;98030.28;4399461;32;20137;-73
2022/06/20 08:45:48;;;;;;;21.23;4.68;;;;;;;24.02;100.00;98065.87;4415919;32;20043;-72
2022/06/20 08:48:23;;;;;;;15.35;3.85;;;;;;;23.96;100.00;98062.63;4415093;32;20492;-72
2022/06/20 08:51:07;;;;;;;12.70;4.35;;;;;;;23.83;100.00;98031.75;4411996;32;20105;-72
2022/06/20 08:54:13;;;;;;;21.27;3.65;;;;;;;24.14;100.00;98060.25;4410834;32;20420;-71
2022/06/20 08:56:52;;;;;;;10.18;3.17;;;;;;;24.21;100.00;98060.34;4413431;32;20045;-72
2022/06/20 08:59:42;;;;;;;11.50;4.07;;;;;;;24.30;100.00;98063.69;4412430;32;20504;-72
2022/06/20 09:02:30;;;;;;;8.75;3.50;;;;;;;24.48;100.00;98065.97;4414108;32;20454;-72
2022/06/20 09:05:11;;;;;;;10.48;3.90;;;;;;;24.11;100.00;98022.47;4410784;32;20142;-72
2022/06/20 09:07:58;;;;;;;12.48;3.42;;;;;;;24.50;100.00;98055.38;4412836;32;20042;-72
2022/06/20 09:10:47;;;;;;;14.25;3.37;;;;;;;24.34;100.00;98051.94;4393077;32;20078;-72
2022/06/20 09:13:42;;;;;;;14.32;3.10;;;;;;;24.55;100.00;98059.78;4411298;32;20049;-72
2022/06/20 09:16:30;;;;;;;12.48;4.07;;;;;;;24.63;100.00;98043.03;4411107;32;20421;-72
2022/06/20 09:19:08;;;;;;;21.10;4.43;;;;;;;25.00;100.00;98045.22;4415130;32;20066;-72
2022/06/20 09:21:46;;;;;;;13.05;3.85;;;;;;;25.07;100.00;98041.78;4413281;32;20394;-73
2022/06/20 09:24:21;;;;;;;11.73;3.25;;;;;;;25.14;100.00;98010.81;4412897;32;20360;-72
2022/06/20 09:27:07;;;;;;;9.80;3.80;;;;;;;25.50;100.00;98038.88;4416974;32;20068;-73
2022/06/20 09:29:41;;;;;;;9.18;3.40;;;;;;;25.41;100.00;98041.91;4409264;32;20082;-78
2022/06/20 09:32:26;;;;;;;13.45;3.60;;;;;;;25.81;100.00;98042.41;4416026;32;20064;-72
2022/06/20 09:35:11;;;;;;;20.23;5.05;;;;;;;25.96;100.00;98010.28;4416432;32;20068;-72
2022/06/20 09:37:39;;;;;;;10.38;3.80;;;;;;;26.14;100.00;98024.31;4416981;32;20110;-72
2022/06/20 09:40:17;;;;;;;10.40;3.50;;;;;;;26.10;100.00;98021.50;4417857;32;20123;-71
2022/06/20 09:42:52;;;;;;;16.17;3.65;;;;;;;26.14;100.00;98011.31;4407734;32;20103;-72
2022/06/20 09:45:34;;;;;;;7.10;3.42;;;;;;;25.83;100.00;98001.47;4409502;32;20094;-73
2022/06/20 09:48:26;;;;;;;9.00;3.20;;;;;;;25.99;100.00;97995.75;4416573;32;20096;-72
2022/06/20 09:51:12;;;;;;;12.73;3.22;;;;;;;25.86;100.00;98001.50;4418030;32;20050;-71
2022/06/20 09:53:47;;;;;;;10.73;3.35;;;;;;;26.24;100.00;97966.47;4415414;32;20371;-72
2022/06/20 09:56:31;;;;;;;13.48;3.70;;;;;;;26.71;100.00;97977.12;4416858;32;20392;-72
2022/06/20 09:59:20;;;;;;;14.87;3.97;;;;;;;26.20;100.00;97978.63;4416889;32;20436;-72
2022/06/20 10:02:04;;;;;;;9.20;3.40;;;;;;;26.25;100.00;98016.94;4415787;32;20046;-71
2022/06/20 10:04:47;;;;;;;7.70;3.30;;;;;;;26.54;100.00;98003.41;4412706;32;20080;-72
2022/06/20 10:07:36;;;;;;;5.93;2.35;;;;;;;26.75;100.00;98011.87;4397057;32;20081;-72
2022/06/20 10:10:28;;;;;;;7.32;3.30;;;;;;;26.56;100.00;97967.91;4415686;32;20133;-72
2022/06/20 10:12:57;;;;;;;;;;;;;;;27.05;100.00;98030.25;4414591;32;20150;-72
2022/06/20 10:15:45;;;;;;;6.30;3.25;;;;;;;27.15;100.00;98053.59;4416704;32;19990;-71
2022/06/20 10:18:30;;;;;;;25.77;5.10;;;;;;;27.05;100.00;98079.97;4417130;32;20081;-73
2022/06/20 10:21:47;;;;;;;9.98;7.57;;;;;;;26.11;100.00;98149.97;4416637;32;20080;-72
2022/06/20 10:24:12;;;;;;;8.32;4.28;;;;;;;23.11;100.00;98172.94;4355200;32;20351;-73
2022/06/20 10:26:49;;;;;;;8.25;7.45;;;;;;;21.15;100.00;98196.94;4403993;32;20066;-73
2022/06/20 10:29:22;;;;;;;8.55;7.10;;;;;;;20.49;100.00;98195.81;4403782;32;20066;-73
2022/06/20 10:32:18;;;;;;;11.05;7.28;;;;;;;20.06;100.00;98183.31;4415618;32;20107;-73
2022/06/20 10:35:04;;;;;;;14.50;8.35;;;;;;;19.54;100.00;98234.34;4416011;32;20821;-73
2022/06/20 10:37:52;;;;;;;10.43;8.20;;;;;;;19.21;100.00;98237.69;4415429;32;20061;-74
2022/06/20 10:40:31;;;;;;;11.23;7.20;;;;;;;18.81;100.00;98188.84;4416848;32;20387;-73
2022/06/20 10:43:11;;;;;;;10.27;7.40;;;;;;;18.99;100.00;98225.09;4416673;32;20054;-73
2022/06/20 10:45:46;;;;;;;13.75;9.10;;;;;;;18.70;100.00;98191.09;4415391;32;20045;-73
2022/06/20 10:48:31;;;;;;;11.93;8.32;;;;;;;18.98;100.00;98236.31;4417018;32;20046;-72
2022/06/20 10:51:22;;;;;;;19.50;6.75;;;;;;;18.97;100.00;98237.44;4407367;32;20037;-75
2022/06/20 10:54:20;;;;;;;14.25;8.18;;;;;;;18.85;100.00;98178.91;4415411;32;20479;-73
2022/06/20 10:57:14;;;;;;;8.07;6.05;;;;;;;18.71;100.00;98153.72;4403815;32;20529;-73
2022/06/20 10:59:54;;;;;;;7.90;5.68;;;;;;;18.24;100.00;98156.37;4401506;32;20066;-73
2022/06/20 11:02:56;;;;;;;11.48;6.20;;;;;;;18.17;100.00;98162.28;4414199;32;20083;-71
2022/06/20 11:05:41;;;;;;;11.07;6.03;;;;;;;18.37;100.00;98190.81;4414365;32;20107;-74
2022/06/20 11:08:31;;;;;;;9.25;4.60;;;;;;;18.06;100.00;98194.53;4414870;32;20038;-74
2022/06/20 11:11:17;;;;;;;7.05;1.73;;;;;;;17.13;100.00;98111.19;4412956;32;20050;-73
2022/06/20 11:13:49;;;;;;;7.50;4.22;;;;;;;16.82;100.00;98103.87;4415079;32;20046;-73
2022/06/20 11:16:30;;;;;;;9.63;5.60;;;;;;;16.60;100.00;98091.94;4414588;32;20119;-74
2022/06/20 11:19:09;;;;;;;9.50;5.93;;;;;;;16.37;100.00;98088.47;4416557;32;20120;-73
2022/06/20 11:21:44;;;;;;;26.15;13.02;;;;;;;16.90;100.00;98181.97;4402538;32;20089;-73
2022/06/20 11:24:37;;;;;;;11.68;7.37;;;;;;;17.11;100.00;98214.06;4413158;32;20502;-73
2022/06/20 11:27:42;;;;;;;9.80;7.40;;;;;;;17.29;100.00;98210.31;4414628;32;20444;-75
2022/06/20 11:30:27;;;;;;;9.95;7.70;;;;;;;17.32;100.00;98236.88;4403137;32;20444;-74
2022/06/20 11:33:02;;;;;;;11.25;7.32;;;;;;;17.12;100.00;98166.69;4416461;32;20038;-73
2022/06/20 11:35:30;;;;;;;7.87;6.82;;;;;;;17.03;100.00;98191.16;4414248;32;20138;-72
2022/06/20 11:38:08;;;;;;;13.00;8.57;;;;;;;17.40;100.00;98259.81;4414898;32;20094;-71
2022/06/20 11:40:47;;;;;;;8.10;6.40;;;;;;;17.34;100.00;98234.66;4416200;32;20212;-71
2022/06/20 11:44:11;;;;;;;9.88;6.18;;;;;;;17.24;100.00;98230.28;4415450;32;20883;-71
2022/06/20 11:47:06;;;;;;;9.93;6.80;;;;;;;17.05;100.00;98213.38;4345016;32;20121;-72
2022/06/20 11:49:41;;;;;;;10.93;5.80;;;;;;;17.10;100.00;98161.56;4352236;32;20070;-74
2022/06/20 11:52:21;;;;;;;8.35;5.60;;;;;;;16.84;100.00;98132.31;4352654;32;20514;-72
2022/06/20 11:55:08;;;;;;;10.60;6.68;;;;;;;16.55;100.00;98075.75;4354237;32;20047;-72
2022/06/20 11:57:43;;;;;;;8.88;6.22;;;;;;;16.81;100.00;98140.31;4352782;32;20058;-71
2022/06/20 12:00:17;;;;;;;8.68;6.30;;;;;;;16.82;100.00;98180.00;4353037;32;20063;-72
2022/06/20 12:02:52;;;;;;;11.18;7.78;;;;;;;16.76;100.00;98183.94;4352663;32;20055;-75
2022/06/20 12:05:18;;;;;;;9.35;6.60;;;;;;;17.09;100.00;98229.88;4353452;32;20114;-71
2022/06/20 12:08:04;;;;;;;12.70;7.70;;;;;;;16.88;100.00;98184.19;4353578;32;20066;-71
2022/06/20 12:10:38;;;;;;;10.52;7.40;;;;;;;17.12;100.00;98183.03;4350417;32;20051;-73
2022/06/20 12:13:08;;;;;;;7.45;6.43;;;;;;;17.38;100.00;98208.41;4349960;32;20178;-69